createdAt,value
2019-02-17T00:01:26.241Z,24.40
2019-02-17T00:03:54.356Z,21.63
2019-02-17T00:06:22.489Z,22.47
2019-02-17T00:08:50.509Z,23.03
2019-02-17T00:11:18.574Z,23.60
2019-02-17T00:13:46.648Z,23.20
2019-02-17T00:16:14.780Z,24.43
2019-02-17T00:18:42.863Z,23.50
2019-02-17T00:21:11.005Z,23.73
2019-02-17T00:23:39.103Z,24.13
2019-02-17T00:26:07.376Z,22.83
2019-02-17T00:28:35.654Z,23.40
2019-02-17T00:31:03.770Z,23.93
2019-02-17T00:33:31.918Z,22.70
2019-02-17T00:36:00.077Z,24.37
2019-02-17T00:38:28.252Z,23.60
2019-02-17T00:40:56.463Z,22.67
2019-02-17T00:43:24.555Z,22.97
2019-02-17T00:45:52.606Z,23.30
2019-02-17T00:48:20.730Z,24.13
2019-02-17T00:50:48.848Z,23.20
2019-02-17T00:53:17.547Z,23.97
2019-02-17T00:55:45.693Z,23.70
2019-02-17T00:58:13.756Z,23.13
2019-02-17T01:00:41.806Z,24.30
2019-02-17T01:03:09.968Z,23.53
2019-02-17T01:05:39.622Z,21.83
2019-02-17T01:08:08.086Z,23.70
2019-02-17T01:10:36.183Z,23.83
2019-02-17T01:13:04.322Z,22.47
2019-02-17T01:15:32.378Z,24.83
2019-02-17T01:18:00.457Z,23.67
2019-02-17T01:20:30.790Z,23.20
2019-02-17T01:22:58.972Z,22.17
2019-02-17T01:25:27.123Z,22.77
2019-02-17T01:27:55.181Z,21.60
2019-02-17T01:30:23.256Z,22.33
2019-02-17T01:32:51.472Z,20.77
2019-02-17T01:35:19.550Z,21.70
2019-02-17T01:37:47.671Z,21.73
2019-02-17T01:40:15.862Z,22.07
2019-02-17T01:42:43.968Z,22.60
2019-02-17T01:45:12.267Z,22.13
2019-02-17T01:47:40.375Z,20.60
2019-02-17T01:50:08.593Z,21.50
2019-02-17T01:52:37.680Z,20.60
2019-02-17T01:55:05.800Z,21.23
2019-02-17T01:57:33.855Z,19.00
2019-02-17T02:00:02.252Z,21.17
2019-02-17T02:02:30.368Z,19.60
2019-02-17T02:04:59.414Z,19.83
2019-02-17T02:07:27.476Z,19.83
2019-02-17T02:09:55.512Z,20.73
2019-02-17T02:12:23.745Z,21.00
2019-02-17T02:14:51.909Z,21.63
2019-02-17T02:17:20.065Z,22.30
2019-02-17T02:19:48.363Z,24.43
2019-02-17T02:22:16.468Z,24.13
2019-02-17T02:24:44.789Z,24.07
2019-02-17T02:27:12.989Z,25.17
2019-02-17T02:29:41.586Z,27.10
2019-02-17T02:32:09.732Z,27.30
2019-02-17T02:34:37.861Z,27.23
2019-02-17T02:37:06.100Z,28.80
2019-02-17T02:39:34.953Z,28.53
2019-02-17T02:42:03.089Z,29.40
2019-02-17T02:44:31.228Z,29.87
2019-02-17T02:46:59.964Z,29.87
2019-02-17T02:49:28.137Z,30.33
2019-02-17T02:51:56.451Z,29.83
2019-02-17T02:54:24.500Z,29.07
2019-02-17T02:56:52.619Z,30.00
2019-02-17T02:59:20.638Z,29.60
2019-02-17T03:01:48.758Z,29.03
2019-02-17T03:04:16.876Z,30.63
2019-02-17T03:06:56.116Z,30.60
2019-02-17T03:09:25.580Z,29.67
2019-02-17T03:11:54.062Z,30.50
2019-02-17T03:14:22.219Z,30.03
2019-02-17T03:16:50.391Z,29.00
2019-02-17T03:19:18.586Z,30.87
2019-02-17T03:21:46.798Z,30.43
2019-02-17T03:24:14.937Z,30.90
2019-02-17T03:26:43.051Z,29.17
2019-02-17T03:29:11.186Z,29.97
2019-02-17T03:31:39.500Z,29.00
2019-02-17T03:34:07.715Z,30.07
2019-02-17T03:36:35.865Z,30.80
2019-02-17T03:39:05.465Z,30.73
2019-02-17T03:41:34.003Z,30.23
2019-02-17T03:44:02.271Z,31.07
2019-02-17T03:46:30.348Z,31.47
2019-02-17T03:48:58.459Z,31.57
2019-02-17T03:51:26.579Z,31.00
2019-02-17T03:53:54.937Z,29.57
2019-02-17T03:56:23.149Z,31.37
2019-02-17T03:58:51.216Z,30.73
2019-02-17T04:01:19.563Z,29.43
2019-02-17T04:03:47.942Z,29.27
2019-02-17T04:06:16.066Z,28.80
2019-02-17T04:08:44.155Z,28.90
2019-02-17T04:11:12.179Z,30.43
2019-02-17T04:13:40.367Z,29.33
2019-02-17T04:16:08.578Z,28.07
2019-02-17T04:18:36.586Z,29.17
2019-02-17T04:21:04.677Z,30.40
2019-02-17T04:23:32.749Z,31.03
2019-02-17T04:26:00.882Z,31.17
2019-02-17T04:28:29.013Z,31.73
2019-02-17T04:30:57.167Z,30.93
2019-02-17T04:33:25.323Z,31.57
2019-02-17T04:35:53.394Z,30.07
2019-02-17T04:38:21.561Z,33.23
2019-02-17T04:40:50.746Z,32.47
2019-02-17T04:43:18.878Z,34.33
2019-02-17T04:45:46.926Z,33.47
2019-02-17T04:48:16.121Z,34.43
2019-02-17T04:50:44.163Z,33.23
2019-02-17T04:53:12.302Z,34.53
2019-02-17T04:55:40.369Z,34.73
2019-02-17T04:58:08.561Z,35.60
2019-02-17T05:00:40.302Z,36.00
2019-02-17T05:03:06.765Z,36.37
2019-02-17T05:05:34.861Z,36.77
2019-02-17T05:08:03.016Z,36.50
2019-02-17T05:10:31.073Z,36.03
2019-02-17T05:12:59.126Z,36.60
2019-02-17T05:15:27.178Z,37.00
2019-02-17T05:17:55.323Z,37.77
2019-02-17T05:20:23.463Z,35.80
2019-02-17T05:22:51.683Z,35.53
2019-02-17T05:25:19.848Z,36.23
2019-02-17T05:27:48.048Z,36.00
2019-02-17T05:30:16.192Z,37.33
2019-02-17T05:32:44.342Z,36.10
2019-02-17T05:35:12.389Z,36.27
2019-02-17T05:37:40.551Z,38.07
2019-02-17T05:40:08.864Z,37.37
2019-02-17T05:42:37.033Z,37.37
2019-02-17T05:45:05.230Z,36.97
2019-02-17T05:47:33.342Z,38.20
2019-02-17T05:50:01.440Z,38.47
2019-02-17T05:52:29.532Z,38.03
2019-02-17T05:54:57.661Z,37.27
2019-02-17T05:57:26.782Z,38.87
2019-02-17T05:59:54.839Z,37.97
2019-02-17T06:02:23.038Z,37.73
2019-02-17T06:04:51.113Z,37.87
2019-02-17T06:07:19.349Z,37.13
2019-02-17T06:09:47.639Z,37.83
2019-02-17T06:12:15.721Z,39.80
2019-02-17T06:14:43.904Z,38.37
2019-02-17T06:17:11.957Z,36.50
2019-02-17T06:19:40.137Z,36.90
2019-02-17T06:22:08.379Z,38.20
2019-02-17T06:24:36.509Z,37.73
2019-02-17T06:27:04.712Z,37.97
2019-02-17T06:29:32.851Z,39.37
2019-02-17T06:32:01.014Z,37.60
2019-02-17T06:34:29.129Z,36.63
2019-02-17T06:36:57.235Z,37.53
2019-02-17T06:39:25.382Z,36.23
2019-02-17T06:41:53.499Z,35.73
2019-02-17T06:44:21.637Z,36.13
2019-02-17T06:46:54.006Z,36.53
2019-02-17T06:49:22.056Z,36.47
2019-02-17T06:51:50.396Z,35.67
2019-02-17T06:54:18.633Z,37.20
2019-02-17T06:56:53.398Z,37.73
2019-02-17T06:59:21.643Z,38.20
2019-02-17T07:01:49.647Z,38.70
2019-02-17T07:04:19.768Z,40.20
2019-02-17T07:06:58.411Z,38.60
2019-02-17T07:09:26.606Z,38.67
2019-02-17T07:11:56.823Z,39.27
2019-02-17T07:14:25.006Z,38.77
2019-02-17T07:16:53.234Z,39.00
2019-02-17T07:19:21.387Z,38.77
2019-02-17T07:21:49.614Z,37.53
2019-02-17T07:24:17.814Z,39.27
2019-02-17T07:26:46.299Z,39.23
2019-02-17T07:29:16.689Z,40.00
2019-02-17T07:31:44.341Z,39.20
2019-02-17T07:34:12.518Z,39.67
2019-02-17T07:36:40.545Z,39.80
2019-02-17T07:39:08.654Z,39.43
2019-02-17T07:41:36.671Z,40.00
2019-02-17T07:44:04.746Z,40.47
2019-02-17T07:46:32.940Z,39.97
2019-02-17T07:49:01.265Z,41.30
2019-02-17T07:51:32.922Z,42.40
2019-02-17T07:54:01.168Z,40.73
2019-02-17T07:56:29.515Z,40.63
2019-02-17T07:58:57.549Z,40.60
2019-02-17T08:01:25.774Z,40.47
2019-02-17T08:03:53.833Z,41.70
2019-02-17T08:06:21.869Z,41.33
2019-02-17T08:08:49.917Z,40.87
2019-02-17T08:11:18.003Z,40.50
2019-02-17T08:13:46.122Z,40.03
2019-02-17T08:16:14.152Z,41.63
2019-02-17T08:18:42.276Z,43.00
2019-02-17T08:21:10.352Z,42.63
2019-02-17T08:23:38.431Z,41.10
2019-02-17T08:26:06.617Z,40.97
2019-02-17T08:28:34.707Z,40.63
2019-02-17T08:31:02.766Z,35.90
2019-02-17T08:33:30.969Z,40.93
2019-02-17T08:35:59.057Z,38.20
2019-02-17T08:38:27.263Z,40.33
2019-02-17T08:40:55.318Z,41.07
2019-02-17T08:43:23.462Z,40.93
2019-02-17T08:45:51.637Z,40.67
2019-02-17T08:48:19.721Z,42.67
2019-02-17T08:50:48.014Z,42.07
2019-02-17T08:53:16.315Z,42.37
2019-02-17T08:55:44.340Z,41.50
2019-02-17T08:58:12.448Z,43.90
2019-02-17T09:00:40.741Z,42.40
2019-02-17T09:03:08.932Z,43.40
2019-02-17T09:05:43.885Z,42.90
2019-02-17T09:08:07.099Z,43.23
2019-02-17T09:10:35.329Z,43.67
2019-02-17T09:13:03.422Z,44.20
2019-02-17T09:15:31.478Z,43.00
2019-02-17T09:17:59.509Z,42.30
2019-02-17T09:20:27.601Z,42.07
2019-02-17T09:22:55.791Z,38.33
2019-02-17T09:25:23.921Z,39.53
2019-02-17T09:27:52.172Z,37.50
2019-02-17T09:30:20.529Z,39.50
2019-02-17T09:32:49.777Z,37.70
2019-02-17T09:35:17.961Z,38.30
2019-02-17T09:37:46.055Z,36.27
2019-02-17T09:40:14.112Z,36.93
2019-02-17T09:42:42.218Z,33.77
2019-02-17T09:45:12.473Z,36.70
2019-02-17T09:47:40.888Z,33.27
2019-02-17T09:50:10.920Z,32.20
2019-02-17T09:52:39.156Z,30.80
2019-02-17T09:55:07.645Z,29.60
2019-02-17T09:57:35.948Z,28.47
2019-02-17T10:00:04.531Z,27.87
2019-02-17T10:02:33.079Z,28.73
2019-02-17T10:05:04.247Z,28.13
2019-02-17T10:07:32.460Z,28.70
2019-02-17T10:10:00.683Z,28.13
2019-02-17T10:12:28.846Z,25.70
2019-02-17T10:14:56.971Z,28.17
2019-02-17T10:17:31.970Z,28.40
2019-02-17T10:20:00.223Z,29.90
2019-02-17T10:22:28.386Z,30.03
2019-02-17T10:24:56.582Z,31.40
2019-02-17T10:27:24.701Z,33.23
2019-02-17T10:29:52.891Z,33.20
2019-02-17T10:32:20.942Z,33.33
2019-02-17T10:34:49.289Z,33.50
2019-02-17T10:37:17.436Z,33.67
2019-02-17T10:39:45.721Z,32.83
2019-02-17T10:42:13.822Z,36.40
2019-02-17T10:44:41.865Z,33.07
2019-02-17T10:47:09.986Z,33.73
2019-02-17T10:49:38.063Z,32.53
2019-02-17T10:52:06.113Z,32.70
2019-02-17T10:54:34.259Z,33.83
2019-02-17T10:57:02.352Z,33.37
2019-02-17T10:59:30.431Z,34.07
2019-02-17T11:01:58.534Z,32.07
2019-02-17T11:04:26.609Z,32.10
2019-02-17T11:06:54.713Z,32.43
2019-02-17T11:09:24.324Z,32.03
2019-02-17T11:11:52.858Z,32.50
2019-02-17T11:14:21.133Z,32.13
2019-02-17T11:16:50.548Z,29.97
2019-02-17T11:19:18.687Z,32.10
2019-02-17T11:21:46.866Z,31.33
2019-02-17T11:24:15.029Z,30.93
2019-02-17T11:26:43.283Z,30.63
2019-02-17T11:29:11.488Z,29.63
2019-02-17T11:31:41.117Z,30.97
2019-02-17T11:34:10.943Z,29.43
2019-02-17T11:36:39.206Z,29.83
2019-02-17T11:39:15.509Z,29.67
2019-02-17T11:41:43.847Z,30.60
2019-02-17T11:44:12.219Z,30.60
2019-02-17T11:46:40.449Z,31.07
2019-02-17T11:49:08.746Z,29.13
2019-02-17T11:51:37.507Z,30.30
2019-02-17T11:54:06.002Z,28.73
2019-02-17T11:56:34.944Z,31.10
2019-02-17T11:59:03.594Z,30.03
2019-02-17T12:01:31.982Z,30.53
2019-02-17T12:04:00.211Z,30.80
2019-02-17T12:06:28.245Z,27.80
2019-02-17T12:08:58.606Z,30.07
2019-02-17T12:11:29.586Z,30.13
2019-02-17T12:13:57.910Z,28.53
2019-02-17T12:16:36.547Z,28.03
2019-02-17T12:18:56.366Z,29.20
2019-02-17T12:21:39.332Z,29.13
2019-02-17T12:24:15.377Z,28.87
2019-02-17T12:27:21.334Z,27.40
2019-02-17T12:29:56.286Z,27.43
2019-02-17T12:32:28.858Z,28.40
2019-02-17T12:34:56.991Z,28.23
2019-02-17T12:37:28.422Z,28.80
2019-02-17T12:39:56.568Z,27.77
2019-02-17T12:42:24.717Z,27.97
2019-02-17T12:44:52.929Z,28.30
2019-02-17T12:47:21.071Z,28.37
2019-02-17T12:49:49.890Z,26.33
2019-02-17T12:52:18.195Z,27.93
2019-02-17T12:54:46.618Z,26.60
2019-02-17T12:57:14.916Z,26.90
2019-02-17T12:59:43.451Z,27.47
2019-02-17T13:02:11.489Z,26.50
2019-02-17T13:04:39.661Z,26.93
2019-02-17T13:07:07.770Z,26.40
2019-02-17T13:09:35.884Z,26.67
2019-02-17T13:12:04.099Z,26.33
2019-02-17T13:14:32.318Z,27.90
2019-02-17T13:17:00.441Z,27.90
2019-02-17T13:19:28.550Z,26.43
2019-02-17T13:21:56.756Z,26.80
2019-02-17T13:24:27.430Z,26.47
2019-02-17T13:26:55.842Z,26.87
2019-02-17T13:29:24.289Z,27.37
2019-02-17T13:31:52.422Z,26.40
2019-02-17T13:34:20.507Z,26.50
2019-02-17T13:36:48.650Z,25.97
2019-02-17T13:39:17.071Z,28.13
2019-02-17T13:41:45.175Z,26.53
2019-02-17T13:44:13.246Z,27.17
2019-02-17T13:46:41.331Z,27.03
2019-02-17T13:49:09.535Z,26.40
2019-02-17T13:51:37.872Z,27.03
2019-02-17T13:54:06.022Z,26.70
2019-02-17T13:56:34.111Z,27.27
2019-02-17T13:59:02.261Z,25.93
2019-02-17T14:01:30.338Z,27.23
2019-02-17T14:03:58.460Z,25.50
2019-02-17T14:06:26.788Z,24.73
2019-02-17T14:08:54.858Z,25.83
2019-02-17T14:11:23.172Z,24.40
2019-02-17T14:13:51.433Z,24.27
2019-02-17T14:16:19.451Z,23.53
2019-02-17T14:18:47.816Z,24.70
2019-02-17T14:21:15.956Z,24.30
2019-02-17T14:23:44.160Z,24.40
2019-02-17T14:26:12.465Z,24.07
2019-02-17T14:28:40.688Z,25.07
2019-02-17T14:31:11.216Z,24.20
2019-02-17T14:33:39.296Z,23.60
2019-02-17T14:36:07.504Z,25.13
2019-02-17T14:38:35.590Z,24.90
2019-02-17T14:41:03.781Z,23.10
2019-02-17T14:43:31.863Z,23.47
2019-02-17T14:46:00.110Z,24.00
2019-02-17T14:48:28.482Z,24.63
2019-02-17T14:50:56.721Z,24.13
2019-02-17T14:53:25.072Z,24.40
2019-02-17T14:55:53.183Z,23.47
2019-02-17T14:58:21.311Z,24.37
2019-02-17T15:00:49.616Z,23.03
2019-02-17T15:03:17.703Z,22.30
2019-02-17T15:05:45.936Z,22.93
2019-02-17T15:08:14.178Z,23.30
2019-02-17T15:10:42.394Z,23.53
2019-02-17T15:13:10.666Z,23.07
2019-02-17T15:15:38.879Z,22.63
2019-02-17T15:18:07.357Z,23.60
2019-02-17T15:20:35.489Z,22.70
2019-02-17T15:23:03.916Z,23.17
2019-02-17T15:25:32.151Z,22.63
2019-02-17T15:28:00.585Z,21.47
2019-02-17T15:30:28.872Z,21.37
2019-02-17T15:33:03.696Z,21.73
2019-02-17T15:35:26.936Z,21.17
2019-02-17T15:37:55.001Z,21.00
2019-02-17T15:40:23.609Z,20.60
2019-02-17T15:42:52.779Z,21.73
2019-02-17T15:45:21.030Z,20.57
2019-02-17T15:47:49.392Z,21.27
2019-02-17T15:50:17.817Z,20.73
2019-02-17T15:52:45.958Z,20.60
2019-02-17T15:55:14.112Z,20.43
2019-02-17T15:57:42.197Z,19.87
2019-02-17T16:00:12.586Z,20.70
2019-02-17T16:02:40.792Z,20.63
2019-02-17T16:05:09.887Z,20.67
2019-02-17T16:07:38.358Z,20.10
2019-02-17T16:10:07.923Z,19.47
2019-02-17T16:12:36.085Z,19.43
2019-02-17T16:15:06.472Z,19.60
2019-02-17T16:17:34.855Z,18.47
2019-02-17T16:20:03.395Z,20.30
2019-02-17T16:22:31.444Z,20.53
2019-02-17T16:24:59.583Z,19.90
2019-02-17T16:27:28.000Z,21.77
2019-02-17T16:29:56.235Z,22.27
2019-02-17T16:32:24.452Z,23.13
2019-02-17T16:34:52.750Z,21.20
2019-02-17T16:37:20.862Z,22.13
2019-02-17T16:39:49.030Z,20.93
2019-02-17T16:42:18.191Z,21.80
2019-02-17T16:44:46.284Z,21.57
2019-02-17T16:47:14.355Z,21.83
2019-02-17T16:49:42.472Z,21.37
2019-02-17T16:52:10.580Z,21.87
2019-02-17T16:54:38.717Z,21.97
2019-02-17T16:57:06.863Z,20.93
2019-02-17T16:59:34.997Z,21.87
2019-02-17T17:02:03.448Z,19.60
2019-02-17T17:04:31.559Z,19.93
2019-02-17T17:07:01.064Z,19.23
2019-02-17T17:09:29.331Z,21.63
2019-02-17T17:11:57.431Z,21.37
2019-02-17T17:14:25.596Z,22.27
2019-02-17T17:16:54.070Z,20.90
2019-02-17T17:19:22.219Z,21.50
2019-02-17T17:21:50.369Z,21.97
2019-02-17T17:24:18.592Z,21.07
2019-02-17T17:26:47.002Z,22.53
2019-02-17T17:29:15.196Z,22.80
2019-02-17T17:31:43.259Z,21.97
2019-02-17T17:34:13.209Z,22.70
2019-02-17T17:36:41.487Z,22.30
2019-02-17T17:39:09.783Z,23.03
2019-02-17T17:41:38.260Z,23.87
2019-02-17T17:44:06.404Z,22.33
2019-02-17T17:46:34.618Z,22.40
2019-02-17T17:49:02.907Z,23.47
2019-02-17T17:51:31.114Z,23.27
2019-02-17T17:53:59.374Z,22.70
2019-02-17T17:56:27.600Z,24.00
2019-02-17T17:58:55.877Z,23.77
2019-02-17T18:01:24.082Z,23.60
2019-02-17T18:03:52.298Z,23.77
2019-02-17T18:06:21.221Z,24.63
2019-02-17T18:08:49.303Z,25.93
2019-02-17T18:11:17.489Z,25.13
2019-02-17T18:13:47.187Z,24.00
2019-02-17T18:16:15.895Z,24.33
2019-02-17T18:18:44.697Z,24.10
2019-02-17T18:21:12.961Z,26.47
2019-02-17T18:23:42.075Z,25.10
2019-02-17T18:26:12.549Z,25.07
2019-02-17T18:28:40.893Z,25.77
2019-02-17T18:31:08.984Z,25.27
2019-02-17T18:33:37.083Z,26.17
2019-02-17T18:36:05.143Z,26.00
2019-02-17T18:38:33.276Z,26.23
2019-02-17T18:41:01.739Z,27.07
2019-02-17T18:43:30.607Z,26.57
2019-02-17T18:45:58.875Z,26.80
2019-02-17T18:48:29.429Z,26.87
2019-02-17T18:50:59.474Z,26.37
2019-02-17T18:53:33.272Z,27.30
2019-02-17T18:56:01.398Z,27.10
2019-02-17T18:58:29.553Z,27.67
2019-02-17T19:00:57.689Z,27.27
2019-02-17T19:03:25.751Z,26.73
2019-02-17T19:05:53.869Z,27.20
2019-02-17T19:08:23.248Z,28.13
2019-02-17T19:10:51.652Z,28.47
2019-02-17T19:13:19.841Z,27.40
2019-02-17T19:15:48.025Z,27.53
2019-02-17T19:18:16.346Z,27.93
2019-02-17T19:20:44.738Z,27.50
2019-02-17T19:23:12.967Z,27.73
2019-02-17T19:25:41.104Z,27.43
2019-02-17T19:28:09.303Z,27.33
2019-02-17T19:30:37.340Z,26.47
2019-02-17T19:33:05.433Z,27.50
2019-02-17T19:35:41.510Z,28.53
2019-02-17T19:38:03.514Z,27.77
2019-02-17T19:40:31.711Z,28.43
2019-02-17T19:42:59.865Z,26.40
2019-02-17T19:45:27.954Z,27.77
2019-02-17T19:47:56.203Z,27.03
2019-02-17T19:50:24.216Z,27.93
2019-02-17T19:52:52.384Z,26.80
2019-02-17T19:55:20.590Z,27.40
2019-02-17T19:57:48.690Z,26.57
2019-02-17T20:00:16.808Z,26.80
2019-02-17T20:03:04.459Z,28.27
2019-02-17T20:05:35.602Z,27.87
2019-02-17T20:08:03.985Z,27.07
2019-02-17T20:10:32.342Z,26.97
2019-02-17T20:13:00.716Z,27.83
2019-02-17T20:15:32.937Z,26.10
2019-02-17T20:18:02.660Z,26.57
2019-02-17T20:20:33.834Z,27.77
2019-02-17T20:23:05.538Z,27.50
2019-02-17T20:25:33.844Z,27.10
2019-02-17T20:28:02.814Z,26.87
2019-02-17T20:30:33.128Z,28.00
2019-02-17T20:33:04.308Z,27.13
2019-02-17T20:35:35.468Z,27.60
2019-02-17T20:38:03.691Z,27.13
2019-02-17T20:40:31.964Z,26.73
2019-02-17T20:43:00.256Z,27.50
2019-02-17T20:45:30.162Z,26.90
2019-02-17T20:47:59.246Z,27.60
2019-02-17T20:50:30.443Z,27.17
2019-02-17T20:53:00.347Z,27.77
2019-02-17T20:55:28.664Z,28.53
2019-02-17T20:57:56.809Z,27.43
2019-02-17T21:00:26.750Z,27.37
2019-02-17T21:02:54.897Z,28.30
2019-02-17T21:05:23.144Z,28.73
2019-02-17T21:07:51.187Z,28.97
2019-02-17T21:10:19.329Z,27.67
2019-02-17T21:12:47.757Z,28.40
2019-02-17T21:15:17.657Z,28.97
2019-02-17T21:17:45.784Z,28.33
2019-02-17T21:20:15.148Z,29.10
2019-02-17T21:22:43.257Z,29.20
2019-02-17T21:25:11.893Z,29.37
2019-02-17T21:27:40.017Z,29.93
2019-02-17T21:30:08.942Z,29.13
2019-02-17T21:32:37.125Z,30.23
2019-02-17T21:35:09.839Z,29.33
2019-02-17T21:37:38.065Z,29.37
2019-02-17T21:40:08.523Z,29.17
2019-02-17T21:42:36.795Z,29.60
2019-02-17T21:45:06.288Z,28.63
2019-02-17T21:47:35.416Z,28.83
2019-02-17T21:50:04.387Z,28.37
2019-02-17T21:52:33.474Z,28.40
2019-02-17T21:55:01.742Z,27.83
2019-02-17T21:57:31.606Z,28.05
2019-02-17T21:59:59.800Z,28.67
2019-02-17T22:02:30.930Z,28.37
2019-02-17T22:04:59.782Z,27.70
2019-02-17T22:07:28.395Z,31.75
2019-02-17T22:09:56.565Z,28.37
2019-02-17T22:12:24.724Z,29.77
2019-02-17T22:14:53.123Z,29.30
2019-02-17T22:17:21.195Z,27.33
2019-02-17T22:19:49.272Z,29.13
2019-02-17T22:22:17.679Z,28.30
2019-02-17T22:24:46.798Z,28.27
2019-02-17T22:27:14.929Z,27.30
2019-02-17T22:29:43.125Z,28.30
2019-02-17T22:32:11.287Z,28.33
2019-02-17T22:34:39.404Z,27.30
2019-02-17T22:37:07.555Z,26.30
2019-02-17T22:39:35.625Z,28.13
2019-02-17T22:42:03.818Z,27.70
2019-02-17T22:44:33.040Z,27.67
2019-02-17T22:47:01.212Z,27.47
2019-02-17T22:49:29.300Z,28.27
2019-02-17T22:51:57.790Z,27.63
2019-02-17T22:54:25.957Z,27.67
2019-02-17T22:56:54.595Z,27.80
2019-02-17T22:59:22.763Z,27.30
2019-02-17T23:01:51.119Z,29.43
2019-02-17T23:04:20.490Z,28.33
2019-02-17T23:06:54.235Z,29.33
2019-02-17T23:09:18.941Z,28.07
2019-02-17T23:11:47.004Z,27.90
2019-02-17T23:14:15.215Z,27.93
2019-02-17T23:16:43.235Z,28.13
2019-02-17T23:19:11.337Z,27.80
2019-02-17T23:21:41.904Z,27.47
2019-02-17T23:24:10.313Z,26.40
2019-02-17T23:26:38.412Z,27.70
2019-02-17T23:29:06.510Z,27.63
2019-02-17T23:31:34.711Z,26.47
2019-02-17T23:34:02.782Z,27.43
2019-02-17T23:36:30.871Z,27.53
2019-02-17T23:38:58.979Z,26.67
2019-02-17T23:41:27.124Z,27.70
2019-02-17T23:43:58.649Z,27.07
2019-02-17T23:46:27.274Z,27.03
2019-02-17T23:48:55.572Z,26.47
2019-02-17T23:51:23.701Z,27.23
2019-02-17T23:53:51.804Z,25.93
2019-02-17T23:56:19.948Z,26.90
2019-02-17T23:58:48.061Z,27.23
